createdAt,value
2019-01-14T00:00:10.241Z,6.40
2019-01-14T00:02:39.947Z,6.27
2019-01-14T00:05:09.709Z,6.22
2019-01-14T00:07:39.393Z,6.04
2019-01-14T00:10:09.062Z,6.01
2019-01-14T00:12:38.689Z,6.07
2019-01-14T00:15:08.912Z,6.00
2019-01-14T00:17:38.578Z,5.95
2019-01-14T00:20:08.396Z,6.09
2019-01-14T00:22:37.986Z,5.91
2019-01-14T00:25:07.785Z,5.96
2019-01-14T00:27:37.450Z,6.00
2019-01-14T00:30:10.406Z,6.14
2019-01-14T00:32:40.061Z,6.04
2019-01-14T00:35:10.212Z,5.95
2019-01-14T00:37:39.821Z,6.05
2019-01-14T00:40:12.189Z,5.95
2019-01-14T00:42:42.204Z,5.94
2019-01-14T00:45:12.068Z,6.10
2019-01-14T00:47:41.762Z,6.02
2019-01-14T00:50:12.775Z,6.06
2019-01-14T00:52:42.561Z,5.92
2019-01-14T00:55:12.615Z,6.04
2019-01-14T00:57:42.167Z,5.81
2019-01-14T01:00:15.908Z,5.81
2019-01-14T01:02:45.593Z,5.78
2019-01-14T01:05:15.326Z,5.89
2019-01-14T01:07:45.062Z,5.83
2019-01-14T01:10:14.973Z,5.90
2019-01-14T01:12:44.670Z,5.89
2019-01-14T01:15:16.060Z,5.79
2019-01-14T01:17:46.076Z,5.75
2019-01-14T01:20:21.082Z,5.86
2019-01-14T01:22:50.768Z,5.65
2019-01-14T01:25:20.518Z,5.58
2019-01-14T01:27:50.168Z,5.61
2019-01-14T01:30:20.007Z,5.54
2019-01-14T01:32:49.571Z,5.56
2019-01-14T01:35:19.235Z,5.49
2019-01-14T01:37:48.947Z,5.55
2019-01-14T01:40:21.992Z,5.39
2019-01-14T01:42:51.818Z,5.41
2019-01-14T01:45:21.610Z,5.34
2019-01-14T01:47:51.243Z,5.38
2019-01-14T01:50:20.822Z,5.42
2019-01-14T01:52:50.404Z,5.21
2019-01-14T01:55:20.011Z,5.39
2019-01-14T01:57:49.704Z,5.30
2019-01-14T02:00:20.988Z,5.39
2019-01-14T02:02:51.162Z,5.33
2019-01-14T02:05:21.210Z,5.32
2019-01-14T02:07:50.890Z,5.40
2019-01-14T02:10:22.255Z,5.31
2019-01-14T02:12:51.952Z,5.33
2019-01-14T02:15:22.457Z,5.19
2019-01-14T02:17:52.266Z,5.30
2019-01-14T02:20:21.944Z,5.32
2019-01-14T02:22:51.574Z,5.39
2019-01-14T02:25:21.424Z,5.27
2019-01-14T02:27:51.054Z,5.24
2019-01-14T02:30:22.571Z,5.40
2019-01-14T02:32:52.399Z,5.46
2019-01-14T02:35:22.075Z,5.21
2019-01-14T02:37:51.694Z,5.20
2019-01-14T02:40:22.406Z,5.22
2019-01-14T02:42:52.081Z,5.27
2019-01-14T02:45:21.707Z,5.29
2019-01-14T02:47:51.463Z,5.23
2019-01-14T02:50:21.184Z,5.26
2019-01-14T02:52:50.773Z,5.13
2019-01-14T02:55:20.433Z,5.23
2019-01-14T02:57:50.024Z,5.08
2019-01-14T03:00:22.614Z,5.31
2019-01-14T03:02:52.360Z,5.19
2019-01-14T03:05:21.983Z,5.07
2019-01-14T03:07:51.594Z,5.26
2019-01-14T03:10:21.290Z,5.30
2019-01-14T03:12:51.029Z,5.21
2019-01-14T03:15:20.870Z,5.16
2019-01-14T03:17:50.570Z,5.18
2019-01-14T03:20:20.267Z,5.26
2019-01-14T03:22:49.802Z,5.20
2019-01-14T03:25:19.470Z,5.24
2019-01-14T03:27:49.207Z,5.22
2019-01-14T03:30:19.647Z,5.18
2019-01-14T03:32:49.400Z,5.16
2019-01-14T03:35:19.076Z,5.22
2019-01-14T03:37:48.725Z,5.33
2019-01-14T03:40:18.748Z,5.28
2019-01-14T03:42:48.330Z,5.34
2019-01-14T03:45:18.688Z,5.30
2019-01-14T03:47:48.506Z,5.38
2019-01-14T03:50:21.504Z,5.47
2019-01-14T03:52:51.516Z,5.34
2019-01-14T03:55:21.159Z,5.23
2019-01-14T03:57:52.176Z,5.37
2019-01-14T04:00:21.863Z,5.36
2019-01-14T04:02:51.425Z,5.27
2019-01-14T04:05:21.206Z,5.22
2019-01-14T04:07:50.876Z,4.86
2019-01-14T04:10:20.700Z,4.62
2019-01-14T04:12:50.242Z,4.67
2019-01-14T04:15:20.399Z,4.49
2019-01-14T04:17:49.979Z,4.39
2019-01-14T04:20:20.203Z,4.54
2019-01-14T04:22:51.537Z,4.36
2019-01-14T04:25:21.120Z,4.33
2019-01-14T04:27:50.752Z,4.32
2019-01-14T04:30:22.397Z,4.29
2019-01-14T04:32:52.176Z,4.60
2019-01-14T04:35:22.994Z,4.54
2019-01-14T04:37:52.704Z,4.55
2019-01-14T04:40:22.507Z,4.53
2019-01-14T04:42:52.075Z,4.38
2019-01-14T04:45:21.885Z,4.51
2019-01-14T04:47:51.506Z,4.52
2019-01-14T04:50:22.030Z,4.37
2019-01-14T04:52:51.658Z,4.34
2019-01-14T04:55:21.285Z,4.57
2019-01-14T04:57:50.834Z,4.66
2019-01-14T05:00:25.162Z,4.64
2019-01-14T05:02:54.823Z,4.77
2019-01-14T05:05:24.449Z,4.57
2019-01-14T05:07:54.007Z,4.55
2019-01-14T05:10:23.656Z,4.69
2019-01-14T05:12:53.290Z,4.53
2019-01-14T05:15:22.896Z,4.57
2019-01-14T05:17:52.468Z,4.50
2019-01-14T05:20:26.453Z,4.59
2019-01-14T05:22:56.601Z,4.44
2019-01-14T05:25:26.269Z,4.60
2019-01-14T05:27:55.890Z,4.40
2019-01-14T05:30:25.635Z,4.55
2019-01-14T05:32:55.185Z,4.56
2019-01-14T05:35:24.721Z,4.52
2019-01-14T05:37:54.309Z,4.45
2019-01-14T05:40:27.277Z,4.62
2019-01-14T05:42:56.898Z,4.37
2019-01-14T05:45:26.545Z,4.50
2019-01-14T05:47:56.099Z,4.34
2019-01-14T05:50:25.682Z,4.40
2019-01-14T05:52:55.287Z,4.33
2019-01-14T05:55:24.873Z,4.28
2019-01-14T05:57:54.419Z,4.37
2019-01-14T06:00:34.409Z,4.30
2019-01-14T06:03:04.043Z,4.25
2019-01-14T06:05:33.609Z,4.37
2019-01-14T06:08:03.191Z,4.24
2019-01-14T06:10:32.763Z,4.25
2019-01-14T06:13:02.355Z,4.35
2019-01-14T06:15:31.980Z,4.31
2019-01-14T06:18:01.557Z,4.31
2019-01-14T06:20:31.656Z,4.27
2019-01-14T06:23:01.281Z,4.28
2019-01-14T06:25:30.916Z,4.17
2019-01-14T06:28:00.517Z,4.27
2019-01-14T06:30:30.731Z,4.16
2019-01-14T06:33:00.393Z,4.31
2019-01-14T06:35:30.082Z,4.35
2019-01-14T06:37:59.647Z,4.19
2019-01-14T06:40:29.315Z,4.30
2019-01-14T06:42:58.871Z,4.16
2019-01-14T06:45:28.473Z,4.10
2019-01-14T06:47:58.033Z,4.19
2019-01-14T06:50:27.621Z,4.28
2019-01-14T06:52:57.259Z,4.18
2019-01-14T06:55:26.789Z,4.19
2019-01-14T06:57:56.364Z,4.21
2019-01-14T07:00:27.483Z,4.18
2019-01-14T07:02:57.355Z,4.24
2019-01-14T07:05:26.924Z,4.13
2019-01-14T07:07:59.914Z,4.12
2019-01-14T07:10:30.528Z,4.11
2019-01-14T07:13:00.169Z,4.12
2019-01-14T07:15:29.813Z,4.24
2019-01-14T07:17:59.481Z,4.07
2019-01-14T07:20:29.139Z,4.19
2019-01-14T07:22:58.687Z,4.24
2019-01-14T07:25:28.404Z,4.30
2019-01-14T07:28:07.029Z,4.22
2019-01-14T07:30:36.698Z,4.29
2019-01-14T07:33:06.337Z,4.24
2019-01-14T07:35:35.997Z,4.26
2019-01-14T07:38:07.405Z,4.28
2019-01-14T07:40:36.966Z,4.22
2019-01-14T07:43:06.512Z,4.29
2019-01-14T07:45:36.165Z,4.26
2019-01-14T07:48:05.755Z,4.26
2019-01-14T07:50:35.410Z,4.24
2019-01-14T07:53:05.077Z,4.07
2019-01-14T07:55:34.642Z,4.11
2019-01-14T07:58:04.227Z,3.92
2019-01-14T08:00:33.847Z,4.06
2019-01-14T08:03:03.573Z,4.24
2019-01-14T08:05:33.219Z,4.01
2019-01-14T08:08:02.818Z,3.98
2019-01-14T08:10:32.375Z,3.74
2019-01-14T08:13:01.947Z,3.59
2019-01-14T08:15:31.531Z,3.59
2019-01-14T08:18:01.156Z,3.88
2019-01-14T08:20:30.790Z,3.86
2019-01-14T08:23:00.531Z,3.83
2019-01-14T08:25:30.234Z,3.99
2019-01-14T08:27:59.818Z,3.75
2019-01-14T08:30:29.384Z,3.95
2019-01-14T08:32:59.019Z,3.99
2019-01-14T08:35:29.524Z,3.96
2019-01-14T08:37:59.206Z,4.07
2019-01-14T08:40:30.842Z,4.03
2019-01-14T08:43:02.369Z,4.16
2019-01-14T08:45:31.954Z,4.10
2019-01-14T08:48:01.545Z,4.06
2019-01-14T08:50:31.084Z,4.01
2019-01-14T08:53:00.742Z,4.10
2019-01-14T08:55:30.365Z,4.18
2019-01-14T08:58:00.023Z,4.14
2019-01-14T09:00:29.660Z,3.97
2019-01-14T09:02:59.223Z,3.82
2019-01-14T09:05:28.818Z,3.97
2019-01-14T09:07:58.460Z,3.65
2019-01-14T09:10:28.122Z,3.72
2019-01-14T09:12:57.738Z,3.92
2019-01-14T09:15:27.282Z,3.94
2019-01-14T09:18:02.674Z,3.92
2019-01-14T09:20:28.231Z,4.08
2019-01-14T09:22:57.806Z,3.68
2019-01-14T09:25:36.240Z,3.95
2019-01-14T09:28:06.275Z,3.97
2019-01-14T09:30:35.825Z,4.14
2019-01-14T09:33:05.454Z,4.20
2019-01-14T09:35:35.244Z,4.21
2019-01-14T09:38:05.258Z,4.09
2019-01-14T09:40:34.912Z,3.96
2019-01-14T09:43:04.466Z,3.86
2019-01-14T09:45:34.116Z,3.85
2019-01-14T09:48:03.944Z,4.01
2019-01-14T09:50:33.535Z,3.89
2019-01-14T09:53:15.383Z,3.86
2019-01-14T09:55:44.980Z,3.88
2019-01-14T09:58:14.578Z,4.05
2019-01-14T10:00:44.264Z,4.05
2019-01-14T10:03:13.826Z,4.07
2019-01-14T10:05:43.446Z,4.05
2019-01-14T10:08:13.005Z,4.21
2019-01-14T10:10:42.566Z,4.35
2019-01-14T10:13:12.230Z,4.18
2019-01-14T10:15:41.851Z,4.18
2019-01-14T10:18:11.441Z,4.06
2019-01-14T10:20:41.029Z,3.98
2019-01-14T10:23:10.588Z,4.30
2019-01-14T10:25:40.189Z,4.25
2019-01-14T10:28:09.745Z,4.12
2019-01-14T10:30:39.640Z,4.14
2019-01-14T10:33:09.231Z,4.16
2019-01-14T10:35:38.836Z,4.12
2019-01-14T10:38:08.475Z,4.26
2019-01-14T10:40:38.074Z,4.26
2019-01-14T10:43:07.752Z,4.27
2019-01-14T10:45:37.339Z,4.08
2019-01-14T10:48:07.072Z,4.21
2019-01-14T10:50:36.728Z,4.33
2019-01-14T10:53:06.322Z,3.93
2019-01-14T10:55:35.901Z,4.12
2019-01-14T10:58:06.058Z,3.96
2019-01-14T11:00:35.628Z,4.12
2019-01-14T11:03:05.495Z,4.01
2019-01-14T11:05:35.188Z,4.01
2019-01-14T11:08:04.976Z,4.25
2019-01-14T11:10:34.527Z,4.40
2019-01-14T11:13:04.268Z,4.27
2019-01-14T11:15:33.895Z,4.33
2019-01-14T11:18:03.480Z,4.29
2019-01-14T11:20:33.345Z,4.38
2019-01-14T11:23:03.277Z,4.32
2019-01-14T11:25:32.955Z,4.38
2019-01-14T11:28:02.650Z,4.17
2019-01-14T11:30:33.083Z,4.36
2019-01-14T11:33:02.660Z,4.33
2019-01-14T11:35:32.300Z,4.39
2019-01-14T11:38:01.861Z,4.43
2019-01-14T11:40:37.211Z,4.49
2019-01-14T11:43:06.916Z,4.45
2019-01-14T11:45:36.575Z,4.60
2019-01-14T11:48:06.459Z,4.48
2019-01-14T11:50:36.017Z,4.39
2019-01-14T11:53:05.764Z,4.47
2019-01-14T11:55:35.417Z,4.44
2019-01-14T11:58:05.211Z,4.29
2019-01-14T12:00:36.887Z,4.28
2019-01-14T12:03:06.367Z,4.16
2019-01-14T12:05:35.983Z,4.20
2019-01-14T12:08:05.677Z,4.02
2019-01-14T12:10:35.243Z,4.17
2019-01-14T12:13:05.101Z,4.27
2019-01-14T12:15:34.726Z,4.27
2019-01-14T12:18:04.837Z,4.34
2019-01-14T12:20:34.505Z,4.22
2019-01-14T12:23:04.485Z,4.34
2019-01-14T12:25:34.186Z,4.43
2019-01-14T12:28:03.829Z,4.33
2019-01-14T12:30:35.651Z,4.36
2019-01-14T12:33:05.956Z,4.36
2019-01-14T12:35:35.665Z,4.39
2019-01-14T12:38:05.694Z,4.16
2019-01-14T12:40:35.410Z,4.23
2019-01-14T12:43:05.286Z,4.31
2019-01-14T12:45:35.329Z,4.39
2019-01-14T12:48:05.217Z,4.28
2019-01-14T12:50:34.965Z,4.24
2019-01-14T12:53:04.736Z,4.26
2019-01-14T12:55:34.350Z,4.14
2019-01-14T12:58:04.118Z,4.17
2019-01-14T13:00:33.755Z,4.19
2019-01-14T13:03:03.470Z,4.13
2019-01-14T13:05:33.290Z,4.15
2019-01-14T13:08:03.014Z,4.18
2019-01-14T13:10:32.614Z,4.16
2019-01-14T13:13:02.186Z,4.33
2019-01-14T13:15:31.859Z,4.35
2019-01-14T13:18:05.414Z,4.40
2019-01-14T13:20:32.859Z,4.48
2019-01-14T13:23:02.483Z,4.55
2019-01-14T13:25:32.175Z,4.42
2019-01-14T13:28:01.946Z,4.40
2019-01-14T13:30:31.971Z,4.22
2019-01-14T13:33:01.733Z,4.25
2019-01-14T13:35:31.689Z,4.28
2019-01-14T13:38:01.354Z,4.35
2019-01-14T13:40:30.976Z,4.16
2019-01-14T13:43:00.843Z,4.15
2019-01-14T13:45:30.673Z,4.21
2019-01-14T13:48:00.370Z,4.24
2019-01-14T13:50:30.043Z,4.14
2019-01-14T13:52:59.699Z,4.18
2019-01-14T13:55:29.373Z,4.24
2019-01-14T13:58:00.135Z,4.00
2019-01-14T14:00:30.016Z,4.04
2019-01-14T14:03:00.546Z,4.14
2019-01-14T14:05:30.227Z,4.27
2019-01-14T14:07:59.914Z,4.14
2019-01-14T14:10:32.862Z,4.08
2019-01-14T14:13:02.578Z,4.06
2019-01-14T14:15:32.341Z,4.02
2019-01-14T14:18:01.977Z,4.27
2019-01-14T14:20:31.592Z,4.15
2019-01-14T14:23:01.290Z,4.24
2019-01-14T14:25:30.945Z,4.25
2019-01-14T14:28:00.640Z,4.19
2019-01-14T14:30:39.230Z,4.19
2019-01-14T14:33:08.995Z,4.05
2019-01-14T14:35:38.660Z,4.03
2019-01-14T14:38:09.767Z,3.97
2019-01-14T14:40:39.617Z,4.10
2019-01-14T14:43:09.239Z,3.90
2019-01-14T14:45:38.967Z,4.10
2019-01-14T14:48:08.862Z,3.98
2019-01-14T14:50:38.579Z,4.19
2019-01-14T14:53:08.284Z,4.04
2019-01-14T14:55:37.944Z,4.04
2019-01-14T14:58:07.654Z,4.07
2019-01-14T15:00:37.322Z,3.93
2019-01-14T15:03:06.968Z,3.92
2019-01-14T15:05:36.549Z,4.00
2019-01-14T15:08:06.257Z,3.92
2019-01-14T15:10:36.208Z,3.89
2019-01-14T15:13:06.085Z,4.01
2019-01-14T15:15:35.777Z,4.06
2019-01-14T15:18:05.644Z,4.11
2019-01-14T15:20:35.392Z,4.03
2019-01-14T15:23:05.073Z,3.97
2019-01-14T15:25:34.736Z,3.94
2019-01-14T15:28:04.949Z,4.00
2019-01-14T15:30:34.636Z,3.85
2019-01-14T15:33:04.441Z,3.95
2019-01-14T15:35:34.054Z,3.82
2019-01-14T15:38:03.779Z,4.07
2019-01-14T15:40:33.404Z,3.92
2019-01-14T15:43:03.085Z,3.83
2019-01-14T15:45:32.726Z,3.88
2019-01-14T15:48:02.318Z,3.97
2019-01-14T15:50:31.940Z,4.08
2019-01-14T15:53:01.611Z,3.86
2019-01-14T15:55:31.354Z,3.97
2019-01-14T15:58:00.924Z,3.92
2019-01-14T16:00:30.654Z,3.84
2019-01-14T16:03:00.301Z,3.96
2019-01-14T16:05:29.972Z,3.80
2019-01-14T16:07:59.595Z,3.89
2019-01-14T16:10:29.281Z,3.86
2019-01-14T16:12:58.913Z,3.79
2019-01-14T16:15:28.761Z,3.82
2019-01-14T16:17:58.337Z,3.83
2019-01-14T16:20:28.421Z,3.74
2019-01-14T16:22:58.018Z,3.80
2019-01-14T16:25:27.723Z,3.74
2019-01-14T16:27:57.392Z,3.76
2019-01-14T16:30:29.980Z,3.59
2019-01-14T16:32:59.617Z,3.77
2019-01-14T16:35:29.219Z,3.70
2019-01-14T16:37:58.848Z,3.80
2019-01-14T16:40:28.463Z,3.56
2019-01-14T16:42:58.088Z,3.68
2019-01-14T16:45:28.325Z,3.64
2019-01-14T16:47:58.075Z,3.55
2019-01-14T16:50:29.000Z,3.50
2019-01-14T16:53:01.497Z,3.53
2019-01-14T16:55:46.581Z,3.52
2019-01-14T16:58:16.232Z,3.77
2019-01-14T17:00:45.962Z,3.53
2019-01-14T17:03:15.601Z,3.58
2019-01-14T17:05:45.310Z,3.55
2019-01-14T17:08:14.931Z,3.50
2019-01-14T17:10:44.617Z,3.44
2019-01-14T17:13:14.319Z,3.51
2019-01-14T17:15:43.977Z,3.55
2019-01-14T17:18:13.640Z,3.54
2019-01-14T17:20:43.360Z,3.53
2019-01-14T17:23:13.030Z,3.54
2019-01-14T17:25:42.718Z,3.53
2019-01-14T17:28:12.332Z,3.53
2019-01-14T17:30:42.038Z,3.52
2019-01-14T17:33:11.869Z,3.48
2019-01-14T17:35:41.511Z,3.52
2019-01-14T17:38:11.134Z,3.49
2019-01-14T17:40:40.794Z,3.54
2019-01-14T17:43:10.455Z,3.62
2019-01-14T17:45:40.144Z,3.60
2019-01-14T17:48:09.819Z,3.41
2019-01-14T17:50:39.443Z,3.46
2019-01-14T17:53:09.027Z,3.43
2019-01-14T17:55:38.689Z,3.44
2019-01-14T17:58:08.383Z,3.41
2019-01-14T18:00:38.070Z,3.40
2019-01-14T18:03:07.657Z,3.43
2019-01-14T18:05:37.400Z,3.44
2019-01-14T18:08:07.017Z,3.54
2019-01-14T18:10:40.164Z,3.50
2019-01-14T18:13:07.960Z,3.52
2019-01-14T18:15:37.582Z,3.47
2019-01-14T18:18:07.298Z,3.46
2019-01-14T18:20:36.950Z,3.36
2019-01-14T18:23:06.635Z,3.56
2019-01-14T18:25:36.241Z,3.55
2019-01-14T18:28:05.921Z,3.41
2019-01-14T18:30:35.585Z,3.51
2019-01-14T18:33:05.312Z,3.49
2019-01-14T18:35:35.023Z,3.47
2019-01-14T18:38:04.863Z,3.46
2019-01-14T18:40:34.538Z,3.43
2019-01-14T18:43:04.239Z,3.47
2019-01-14T18:45:33.914Z,3.41
2019-01-14T18:48:04.079Z,3.54
2019-01-14T18:50:33.725Z,3.48
2019-01-14T18:53:03.391Z,3.39
2019-01-14T18:55:32.995Z,3.42
2019-01-14T18:58:02.590Z,3.49
2019-01-14T19:00:32.257Z,3.54
2019-01-14T19:03:02.129Z,3.69
2019-01-14T19:05:31.813Z,3.64
2019-01-14T19:08:01.527Z,3.67
2019-01-14T19:10:31.136Z,3.60
2019-01-14T19:13:00.860Z,3.83
2019-01-14T19:15:30.471Z,3.69
2019-01-14T19:18:00.193Z,3.73
2019-01-14T19:20:30.051Z,3.72
2019-01-14T19:22:59.828Z,3.72
2019-01-14T19:25:29.522Z,3.70
2019-01-14T19:27:59.251Z,3.75
2019-01-14T19:30:28.975Z,3.80
2019-01-14T19:32:58.621Z,3.72
2019-01-14T19:35:28.296Z,3.74
2019-01-14T19:37:57.923Z,3.63
2019-01-14T19:40:27.628Z,3.63
2019-01-14T19:42:57.362Z,3.57
2019-01-14T19:45:27.047Z,3.49
2019-01-14T19:47:56.825Z,3.63
2019-01-14T19:50:26.590Z,3.71
2019-01-14T19:52:56.917Z,3.63
2019-01-14T19:55:26.647Z,3.48
2019-01-14T19:57:56.454Z,3.66
2019-01-14T20:00:31.743Z,3.55
2019-01-14T20:03:01.547Z,3.65
2019-01-14T20:05:31.405Z,3.79
2019-01-14T20:08:01.204Z,3.69
2019-01-14T20:10:30.883Z,3.68
2019-01-14T20:13:00.607Z,3.77
2019-01-14T20:15:30.469Z,3.69
2019-01-14T20:18:00.997Z,3.76
2019-01-14T20:20:30.647Z,3.65
2019-01-14T20:23:00.399Z,3.76
2019-01-14T20:25:30.220Z,3.65
2019-01-14T20:27:59.861Z,3.69
2019-01-14T20:30:29.592Z,3.62
2019-01-14T20:32:59.262Z,3.62
2019-01-14T20:35:28.997Z,3.65
2019-01-14T20:37:58.621Z,3.68
2019-01-14T20:40:28.276Z,3.58
2019-01-14T20:42:57.905Z,3.66
2019-01-14T20:45:28.000Z,3.61
2019-01-14T20:47:57.727Z,3.56
2019-01-14T20:50:27.426Z,3.62
2019-01-14T20:52:57.201Z,3.61
2019-01-14T20:55:26.849Z,3.59
2019-01-14T20:57:56.540Z,3.52
2019-01-14T21:00:29.107Z,3.48
2019-01-14T21:02:58.752Z,3.54
2019-01-14T21:05:28.593Z,3.64
2019-01-14T21:07:58.302Z,3.55
2019-01-14T21:10:28.107Z,3.60
2019-01-14T21:12:57.778Z,3.65
2019-01-14T21:15:27.415Z,3.58
2019-01-14T21:17:57.084Z,3.67
2019-01-14T21:20:26.792Z,3.66
2019-01-14T21:22:56.847Z,3.71
2019-01-14T21:25:26.606Z,3.66
2019-01-14T21:27:56.281Z,3.63
2019-01-14T21:30:27.128Z,3.56
2019-01-14T21:32:56.828Z,3.64
2019-01-14T21:35:26.696Z,3.66
2019-01-14T21:37:58.254Z,3.66
2019-01-14T21:40:28.048Z,3.59
2019-01-14T21:42:57.675Z,3.59
2019-01-14T21:45:27.354Z,3.62
2019-01-14T21:47:56.993Z,3.66
2019-01-14T21:50:26.669Z,3.68
2019-01-14T21:52:56.255Z,3.72
2019-01-14T21:55:26.514Z,3.77
2019-01-14T21:57:56.109Z,3.71
2019-01-14T22:00:25.847Z,3.77
2019-01-14T22:02:55.579Z,3.74
2019-01-14T22:05:25.259Z,3.69
2019-01-14T22:07:54.931Z,3.78
2019-01-14T22:10:26.943Z,3.71
2019-01-14T22:12:56.593Z,3.67
2019-01-14T22:15:26.279Z,3.78
2019-01-14T22:17:55.931Z,3.69
2019-01-14T22:20:27.580Z,3.69
2019-01-14T22:22:57.244Z,3.73
2019-01-14T22:25:26.879Z,3.76
2019-01-14T22:27:56.482Z,3.66
2019-01-14T22:30:31.391Z,3.70
2019-01-14T22:33:01.049Z,3.68
2019-01-14T22:35:30.745Z,3.71
2019-01-14T22:38:01.649Z,3.62
2019-01-14T22:40:31.429Z,3.64
2019-01-14T22:43:01.408Z,3.70
2019-01-14T22:45:31.179Z,3.67
2019-01-14T22:48:00.763Z,3.70
2019-01-14T22:50:30.333Z,3.69
2019-01-14T22:53:00.030Z,3.72
2019-01-14T22:55:29.706Z,3.74
2019-01-14T22:57:59.303Z,3.67
2019-01-14T23:01:10.374Z,3.74
2019-01-14T23:03:40.164Z,3.75
2019-01-14T23:06:10.186Z,3.75
2019-01-14T23:08:39.795Z,3.76
2019-01-14T23:11:09.477Z,3.85
2019-01-14T23:13:39.239Z,3.80
2019-01-14T23:16:08.982Z,3.91
2019-01-14T23:18:38.575Z,4.00
2019-01-14T23:21:08.199Z,3.90
2019-01-14T23:23:42.651Z,3.84
2019-01-14T23:26:15.186Z,3.65
2019-01-14T23:28:46.851Z,3.74
2019-01-14T23:31:16.617Z,3.85
2019-01-14T23:33:46.238Z,3.85
2019-01-14T23:36:15.870Z,3.69
2019-01-14T23:38:45.473Z,3.69
2019-01-14T23:41:15.171Z,3.66
2019-01-14T23:43:44.851Z,3.72
2019-01-14T23:46:14.575Z,3.75
2019-01-14T23:48:44.195Z,3.79
2019-01-14T23:51:13.858Z,3.79
2019-01-14T23:53:43.539Z,3.77
2019-01-14T23:56:13.303Z,3.85
2019-01-14T23:58:42.933Z,3.72
